Time;durP1;ratioP1;P1;durP2;ratioP2;P2;SDS_P1;SDS_P2;PMS_P1;PMS_P2;Temp;Humidity;BMP_temperature;BMP_pressure;BME280_temperature;BME280_humidity;BME280_pressure;Samples;Min_cycle;Max_cycle;Signal;HPM_P1;HPM_P2
2022/12/05 00:01:57;;;;;;;4.95;4.07;;;;;;;;;;4517143;28;20042;-64
2022/12/05 00:04:12;;;;;;;5.57;4.47;;;;;;;;;;4532246;28;20149;-64
2022/12/05 00:06:23;;;;;;;5.38;4.57;;;;;;;;;;4531174;28;20033;-64
2022/12/05 00:08:33;;;;;;;4.82;4.30;;;;;;;;;;4533124;28;20036;-64
2022/12/05 00:10:43;;;;;;;5.72;4.60;;;;;;;;;;4531851;28;20056;-64
2022/12/05 00:12:54;;;;;;;5.18;4.30;;;;;;;;;;4530846;28;20100;-64
2022/12/05 00:15:04;;;;;;;5.22;4.50;;;;;;;;;;4516109;28;20557;-64
2022/12/05 00:17:15;;;;;;;5.57;4.90;;;;;;;;;;4531504;28;20552;-63
2022/12/05 00:19:25;;;;;;;5.40;4.60;;;;;;;;;;4530152;28;20493;-64
2022/12/05 00:21:36;;;;;;;5.13;4.53;;;;;;;;;;4532943;28;20088;-63
2022/12/05 00:23:46;;;;;;;4.95;4.20;;;;;;;;;;4531639;28;20128;-64
2022/12/05 00:26:00;;;;;;;4.70;4.18;;;;;;;;;;4531721;28;20041;-64
2022/12/05 00:28:10;;;;;;;5.38;4.50;;;;;;;;;;4530584;28;20088;-63
2022/12/05 00:30:21;;;;;;;5.05;4.38;;;;;;;;;;4531662;28;20057;-64
2022/12/05 00:32:31;;;;;;;5.00;4.50;;;;;;;;;;4531338;28;20541;-64
2022/12/05 00:34:41;;;;;;;5.80;4.70;;;;;;;;;;4530984;28;20496;-64
2022/12/05 00:36:51;;;;;;;5.05;4.30;;;;;;;;;;4530611;28;20577;-64
2022/12/05 00:39:04;;;;;;;5.13;4.20;;;;;;;;;;4531613;28;20633;-64
2022/12/05 00:41:16;;;;;;;5.90;4.80;;;;;;;;;;4516735;28;20904;-63
2022/12/05 00:43:26;;;;;;;5.50;4.40;;;;;;;;;;4531478;28;20040;-64
2022/12/05 00:45:36;;;;;;;5.03;4.40;;;;;;;;;;4531970;28;20069;-63
2022/12/05 00:47:46;;;;;;;4.95;4.20;;;;;;;;;;4531521;28;20042;-64
2022/12/05 00:49:57;;;;;;;5.00;4.30;;;;;;;;;;4516331;28;20041;-64
2022/12/05 00:52:07;;;;;;;5.30;4.15;;;;;;;;;;4530997;28;20087;-64
2022/12/05 00:54:17;;;;;;;6.18;4.75;;;;;;;;;;4530697;28;20060;-64
2022/12/05 00:56:29;;;;;;;5.10;4.30;;;;;;;;;;4532192;28;20123;-64
2022/12/05 00:58:39;;;;;;;5.85;4.35;;;;;;;;;;4512160;28;20141;-64
2022/12/05 01:00:50;;;;;;;5.05;4.28;;;;;;;;;;4532249;28;20605;-64
2022/12/05 01:03:00;;;;;;;4.63;4.13;;;;;;;;;;4531764;28;20088;-64
2022/12/05 01:05:11;;;;;;;5.00;4.50;;;;;;;;;;4528964;28;20084;-64
2022/12/05 01:07:22;;;;;;;4.43;4.00;;;;;;;;;;4531777;28;20041;-63
2022/12/05 01:09:32;;;;;;;4.70;4.20;;;;;;;;;;4531379;28;20509;-64
2022/12/05 01:11:42;;;;;;;5.15;4.10;;;;;;;;;;4529788;28;20037;-64
2022/12/05 01:13:53;;;;;;;4.85;4.35;;;;;;;;;;4531300;28;20037;-64
2022/12/05 01:16:04;;;;;;;5.57;4.57;;;;;;;;;;4531752;28;20243;-64
2022/12/05 01:18:14;;;;;;;4.95;4.45;;;;;;;;;;4530132;28;20041;-64
2022/12/05 01:20:24;;;;;;;5.03;4.40;;;;;;;;;;4530658;28;20041;-64
2022/12/05 01:22:35;;;;;;;5.18;4.30;;;;;;;;;;4510985;28;20104;-64
2022/12/05 01:24:45;;;;;;;5.07;4.40;;;;;;;;;;4531608;28;20072;-64
2022/12/05 01:26:56;;;;;;;4.90;4.15;;;;;;;;;;4532091;28;20172;-63
2022/12/05 01:29:06;;;;;;;5.45;4.40;;;;;;;;;;4530366;28;20033;-64
2022/12/05 01:31:35;;;;;;;5.20;4.35;;;;;;;;;;4531024;28;20501;-64
2022/12/05 01:33:46;;;;;;;5.10;4.45;;;;;;;;;;4531769;28;20040;-64
2022/12/05 01:35:56;;;;;;;5.35;4.32;;;;;;;;;;4530901;28;20029;-64
2022/12/05 01:38:07;;;;;;;5.10;4.53;;;;;;;;;;4532300;28;20033;-64
2022/12/05 01:40:17;;;;;;;5.40;4.55;;;;;;;;;;4533200;28;20040;-64
2022/12/05 01:42:28;;;;;;;5.25;4.60;;;;;;;;;;4530693;28;20061;-64
2022/12/05 01:44:38;;;;;;;5.60;4.43;;;;;;;;;;4529968;28;20397;-64
2022/12/05 01:46:50;;;;;;;4.75;4.18;;;;;;;;;;4513498;28;20064;-64
2022/12/05 01:49:13;;;;;;;5.28;4.05;;;;;;;;;;4530479;28;20560;-64
2022/12/05 01:51:24;;;;;;;4.82;4.10;;;;;;;;;;4530252;28;20113;-64
2022/12/05 01:53:35;;;;;;;5.38;4.40;;;;;;;;;;4511111;28;20152;-64
2022/12/05 01:55:46;;;;;;;4.90;4.28;;;;;;;;;;4530953;28;20532;-64
2022/12/05 01:57:57;;;;;;;4.82;4.18;;;;;;;;;;4530089;28;20048;-64
2022/12/05 02:00:09;;;;;;;5.75;4.38;;;;;;;;;;4531609;28;20152;-64
2022/12/05 02:02:22;;;;;;;4.95;4.20;;;;;;;;;;4531651;28;20136;-64
2022/12/05 02:04:36;;;;;;;5.47;4.40;;;;;;;;;;4531581;28;20469;-64
2022/12/05 02:06:46;;;;;;;4.80;4.15;;;;;;;;;;4515548;28;20084;-64
2022/12/05 02:08:57;;;;;;;5.07;4.28;;;;;;;;;;4532130;28;20540;-64
2022/12/05 02:11:07;;;;;;;5.20;4.30;;;;;;;;;;4529570;28;20040;-64
2022/12/05 02:13:33;;;;;;;4.97;4.30;;;;;;;;;;4530632;28;20052;-64
2022/12/05 02:15:51;;;;;;;5.10;4.32;;;;;;;;;;4531134;28;20117;-64
2022/12/05 02:18:20;;;;;;;5.15;4.20;;;;;;;;;;4531349;28;20038;-64
2022/12/05 02:20:33;;;;;;;5.30;4.30;;;;;;;;;;4529603;28;20498;-65
2022/12/05 02:23:01;;;;;;;4.90;4.35;;;;;;;;;;4528129;28;20048;-64
2022/12/05 02:25:21;;;;;;;4.57;4.18;;;;;;;;;;4530324;28;20556;-64
2022/12/05 02:27:37;;;;;;;5.15;4.40;;;;;;;;;;4529637;28;20097;-64
2022/12/05 02:29:53;;;;;;;5.10;4.32;;;;;;;;;;4530992;28;20040;-64
2022/12/05 02:32:05;;;;;;;5.63;4.35;;;;;;;;;;4514499;28;20045;-64
2022/12/05 02:34:15;;;;;;;4.78;4.07;;;;;;;;;;4530276;28;20036;-64
2022/12/05 02:36:35;;;;;;;4.60;4.10;;;;;;;;;;4530709;28;20048;-64
2022/12/05 02:38:52;;;;;;;4.72;4.22;;;;;;;;;;4528219;28;20496;-64
2022/12/05 02:41:09;;;;;;;5.03;4.28;;;;;;;;;;4526443;28;20103;-63
2022/12/05 02:43:36;;;;;;;4.88;4.25;;;;;;;;;;4529469;28;20319;-64
2022/12/05 02:45:48;;;;;;;4.30;3.90;;;;;;;;;;4530392;28;20034;-64
2022/12/05 02:47:59;;;;;;;5.13;4.22;;;;;;;;;;4529344;28;20044;-64
2022/12/05 02:50:12;;;;;;;4.80;4.05;;;;;;;;;;4529030;28;20032;-64
2022/12/05 02:52:23;;;;;;;4.88;3.95;;;;;;;;;;4531609;28;20044;-64
2022/12/05 02:54:38;;;;;;;4.70;4.20;;;;;;;;;;4529510;28;20536;-64
2022/12/05 02:56:51;;;;;;;5.53;4.38;;;;;;;;;;4531715;28;20041;-64
2022/12/05 02:59:01;;;;;;;4.55;4.00;;;;;;;;;;4530173;28;20044;-64
2022/12/05 03:01:12;;;;;;;4.93;4.20;;;;;;;;;;4530452;28;20565;-64
2022/12/05 03:03:22;;;;;;;5.78;4.50;;;;;;;;;;4529766;28;20050;-64
2022/12/05 03:05:42;;;;;;;5.30;4.35;;;;;;;;;;4532994;28;20034;-64
2022/12/05 03:07:54;;;;;;;5.47;4.47;;;;;;;;;;4530702;28;20608;-64
2022/12/05 03:10:06;;;;;;;4.75;3.92;;;;;;;;;;4517557;28;20037;-64
2022/12/05 03:12:16;;;;;;;5.18;4.10;;;;;;;;;;4531968;28;20032;-64
2022/12/05 03:14:32;;;;;;;5.18;4.15;;;;;;;;;;4531298;28;20095;-64
2022/12/05 03:16:46;;;;;;;4.38;3.80;;;;;;;;;;4532364;28;20037;-64
2022/12/05 03:19:15;;;;;;;5.15;4.40;;;;;;;;;;4531363;28;20053;-64
2022/12/05 03:21:26;;;;;;;4.60;3.83;;;;;;;;;;4531323;28;20046;-64
2022/12/05 03:23:45;;;;;;;4.35;3.80;;;;;;;;;;4529683;28;20033;-64
2022/12/05 03:26:10;;;;;;;4.30;3.80;;;;;;;;;;4531713;28;20041;-64
2022/12/05 03:28:30;;;;;;;4.18;3.78;;;;;;;;;;4532783;28;20630;-64
2022/12/05 03:30:41;;;;;;;4.20;3.60;;;;;;;;;;4530459;28;20040;-64
2022/12/05 03:32:54;;;;;;;5.03;3.83;;;;;;;;;;4528681;28;20489;-64
2022/12/05 03:35:07;;;;;;;5.15;3.95;;;;;;;;;;4532001;28;20629;-64
2022/12/05 03:37:20;;;;;;;5.10;4.18;;;;;;;;;;4532077;28;20161;-64
2022/12/05 03:39:32;;;;;;;4.20;3.80;;;;;;;;;;4534256;28;20020;-66
2022/12/05 03:41:58;;;;;;;4.50;3.92;;;;;;;;;;4532741;28;20640;-64
2022/12/05 03:44:12;;;;;;;4.85;3.90;;;;;;;;;;4533236;28;20037;-64
2022/12/05 03:46:22;;;;;;;4.43;4.00;;;;;;;;;;4515615;28;20030;-64
2022/12/05 03:48:38;;;;;;;4.40;4.00;;;;;;;;;;4532722;28;20038;-64
2022/12/05 03:50:50;;;;;;;4.20;3.73;;;;;;;;;;4534774;28;20639;-64
2022/12/05 03:53:23;;;;;;;4.53;3.88;;;;;;;;;;4532395;28;20570;-64
2022/12/05 03:55:35;;;;;;;4.25;3.80;;;;;;;;;;4532844;28;20482;-64
2022/12/05 03:57:49;;;;;;;4.53;3.65;;;;;;;;;;4532027;28;20049;-64
2022/12/05 04:00:06;;;;;;;4.70;3.80;;;;;;;;;;4532601;28;20040;-64
2022/12/05 04:02:21;;;;;;;4.50;3.85;;;;;;;;;;4530276;28;20048;-64
2022/12/05 04:04:35;;;;;;;4.25;3.80;;;;;;;;;;4532802;28;20860;-63
2022/12/05 04:06:47;;;;;;;5.25;3.95;;;;;;;;;;4515866;28;20126;-64
2022/12/05 04:09:00;;;;;;;4.55;3.72;;;;;;;;;;4534700;28;20124;-64
2022/12/05 04:11:16;;;;;;;4.10;3.50;;;;;;;;;;4530783;28;20785;-64
2022/12/05 04:13:33;;;;;;;4.20;3.80;;;;;;;;;;4532139;28;20053;-64
2022/12/05 04:18:12;;;;;;;;;;;;;;;;;;4531032;28;20506;-64
2022/12/05 04:22:52;;;;;;;4.82;3.80;;;;;;;;;;4531517;28;20037;-64
2022/12/05 04:27:32;;;;;;;3.83;3.45;;;;;;;;;;4530694;28;20029;-64
2022/12/05 04:30:02;;;;;;;3.80;3.42;;;;;;;;;;4532203;28;20041;-64
2022/12/05 04:32:13;;;;;;;4.15;3.70;;;;;;;;;;4527820;28;20112;-63
2022/12/05 04:34:27;;;;;;;3.75;3.35;;;;;;;;;;4514960;28;20092;-64
2022/12/05 04:36:42;;;;;;;3.97;3.53;;;;;;;;;;4532960;28;20036;-64
2022/12/05 04:39:04;;;;;;;5.07;3.70;;;;;;;;;;4531895;28;20048;-64
2022/12/05 04:41:18;;;;;;;4.70;3.60;;;;;;;;;;4534720;28;20452;-64
2022/12/05 04:43:30;;;;;;;4.05;3.45;;;;;;;;;;4532514;28;20619;-64
2022/12/05 04:45:42;;;;;;;4.68;3.88;;;;;;;;;;4531163;28;20619;-64
2022/12/05 04:47:54;;;;;;;4.30;3.50;;;;;;;;;;4531336;28;20752;-64
2022/12/05 04:50:06;;;;;;;4.03;3.53;;;;;;;;;;4530476;28;20097;-64
2022/12/05 04:52:17;;;;;;;4.10;3.45;;;;;;;;;;4517926;28;20118;-65
2022/12/05 04:54:33;;;;;;;4.15;3.40;;;;;;;;;;4530448;28;20120;-65
2022/12/05 04:56:44;;;;;;;4.68;3.88;;;;;;;;;;4532786;28;20044;-65
2022/12/05 04:58:55;;;;;;;4.57;3.65;;;;;;;;;;4514130;28;20042;-65
2022/12/05 05:01:09;;;;;;;4.03;3.42;;;;;;;;;;4530181;28;20497;-65
2022/12/05 05:03:25;;;;;;;4.45;3.72;;;;;;;;;;4522621;28;20136;-65
2022/12/05 05:05:36;;;;;;;4.30;3.72;;;;;;;;;;4530351;28;20045;-65
2022/12/05 05:07:52;;;;;;;4.40;3.80;;;;;;;;;;4531412;28;20040;-65
2022/12/05 05:10:03;;;;;;;4.35;3.38;;;;;;;;;;4529880;28;20772;-65
2022/12/05 05:12:13;;;;;;;3.97;3.58;;;;;;;;;;4531243;28;20050;-65
2022/12/05 05:14:23;;;;;;;4.47;3.70;;;;;;;;;;4530898;28;20102;-65
2022/12/05 05:16:35;;;;;;;4.43;3.60;;;;;;;;;;4529538;28;20044;-64
2022/12/05 05:18:46;;;;;;;3.97;3.30;;;;;;;;;;4533131;28;20721;-65
2022/12/05 05:20:57;;;;;;;4.20;3.80;;;;;;;;;;4532511;28;20033;-64
2022/12/05 05:23:07;;;;;;;4.00;3.60;;;;;;;;;;4531997;28;20041;-64
2022/12/05 05:25:18;;;;;;;4.18;3.30;;;;;;;;;;4531563;28;20038;-64
2022/12/05 05:27:28;;;;;;;4.07;3.45;;;;;;;;;;4530366;28;20681;-64
2022/12/05 05:29:39;;;;;;;4.22;3.83;;;;;;;;;;4531844;28;20076;-65
2022/12/05 05:31:49;;;;;;;4.40;3.50;;;;;;;;;;4515340;28;20048;-65
2022/12/05 05:33:59;;;;;;;3.95;3.33;;;;;;;;;;4530440;28;20029;-64
2022/12/05 05:36:11;;;;;;;4.32;3.55;;;;;;;;;;4530100;28;20124;-64
2022/12/05 05:38:22;;;;;;;3.83;3.38;;;;;;;;;;4530746;28;20581;-64
2022/12/05 05:40:34;;;;;;;3.90;3.50;;;;;;;;;;4531181;28;20037;-64
2022/12/05 05:42:45;;;;;;;3.78;3.38;;;;;;;;;;4531233;28;20202;-64
2022/12/05 05:44:55;;;;;;;4.25;3.55;;;;;;;;;;4529641;28;20052;-64
2022/12/05 05:47:06;;;;;;;4.40;4.00;;;;;;;;;;4531396;28;20048;-65
2022/12/05 05:49:16;;;;;;;4.15;3.50;;;;;;;;;;4530008;28;20470;-64
2022/12/05 05:51:28;;;;;;;3.88;3.47;;;;;;;;;;4531226;28;20545;-64
2022/12/05 05:53:39;;;;;;;3.60;3.22;;;;;;;;;;4529884;28;20576;-64
2022/12/05 05:55:49;;;;;;;4.22;3.50;;;;;;;;;;4531652;28;20068;-64
2022/12/05 05:57:59;;;;;;;3.95;3.38;;;;;;;;;;4513805;28;20486;-64
2022/12/05 06:00:10;;;;;;;3.80;3.30;;;;;;;;;;4528122;28;20041;-64
2022/12/05 06:02:20;;;;;;;4.03;3.47;;;;;;;;;;4529530;28;20091;-64
2022/12/05 06:04:30;;;;;;;3.90;3.40;;;;;;;;;;4529904;28;20047;-64
2022/12/05 06:06:40;;;;;;;3.83;3.30;;;;;;;;;;4530621;28;20500;-64
2022/12/05 06:08:51;;;;;;;3.53;3.17;;;;;;;;;;4529910;28;20044;-64
2022/12/05 06:11:08;;;;;;;3.72;3.28;;;;;;;;;;4528072;28;20041;-64
2022/12/05 06:13:19;;;;;;;4.07;3.42;;;;;;;;;;4529357;28;20083;-64
2022/12/05 06:15:29;;;;;;;3.38;3.03;;;;;;;;;;4529331;28;20116;-64
2022/12/05 06:17:39;;;;;;;4.35;3.75;;;;;;;;;;4529794;28;20133;-64
2022/12/05 06:19:49;;;;;;;4.00;3.60;;;;;;;;;;4531777;28;20568;-64
2022/12/05 06:22:00;;;;;;;3.85;3.22;;;;;;;;;;4531117;28;20038;-64
2022/12/05 06:24:10;;;;;;;4.40;3.65;;;;;;;;;;4530496;28;20124;-64
2022/12/05 06:26:21;;;;;;;4.25;3.58;;;;;;;;;;4530292;28;20164;-63
2022/12/05 06:28:31;;;;;;;4.47;3.78;;;;;;;;;;4530814;28;20396;-64
2022/12/05 06:30:42;;;;;;;4.55;3.70;;;;;;;;;;4529654;28;20052;-63
2022/12/05 06:32:52;;;;;;;4.22;3.65;;;;;;;;;;4529906;28;20052;-63
2022/12/05 06:35:09;;;;;;;3.90;3.33;;;;;;;;;;4529497;28;20061;-63
2022/12/05 06:37:20;;;;;;;3.67;3.30;;;;;;;;;;4530871;28;20029;-63
2022/12/05 06:39:30;;;;;;;4.40;3.63;;;;;;;;;;4531008;28;20045;-64
2022/12/05 06:41:40;;;;;;;4.57;3.67;;;;;;;;;;4528620;28;20046;-64
2022/12/05 06:43:52;;;;;;;3.95;3.45;;;;;;;;;;4529669;28;20032;-63
2022/12/05 06:46:07;;;;;;;4.05;3.60;;;;;;;;;;4528685;28;20068;-65
2022/12/05 06:48:17;;;;;;;3.55;3.25;;;;;;;;;;4529171;28;20360;-63
2022/12/05 06:50:27;;;;;;;4.80;3.60;;;;;;;;;;4531510;28;20044;-63
2022/12/05 06:52:38;;;;;;;3.92;3.40;;;;;;;;;;4526994;28;20451;-64
2022/12/05 06:54:48;;;;;;;3.88;3.50;;;;;;;;;;4528473;28;20032;-63
2022/12/05 06:56:58;;;;;;;4.65;3.60;;;;;;;;;;4530269;28;20041;-63
2022/12/05 06:59:09;;;;;;;4.03;3.50;;;;;;;;;;4529517;28;20041;-63
2022/12/05 07:03:49;;;;;;;3.78;3.30;;;;;;;;;;4528695;28;20104;-63
2022/12/05 07:06:00;;;;;;;4.10;3.67;;;;;;;;;;4529459;28;20057;-63
2022/12/05 07:08:11;;;;;;;4.65;3.60;;;;;;;;;;4531103;28;20525;-63
2022/12/05 07:10:21;;;;;;;3.78;3.22;;;;;;;;;;4532145;28;20049;-63
2022/12/05 07:12:32;;;;;;;4.03;3.45;;;;;;;;;;4533565;28;20036;-63
2022/12/05 07:14:42;;;;;;;3.97;3.58;;;;;;;;;;4532057;28;20076;-63
2022/12/05 07:16:53;;;;;;;4.07;3.47;;;;;;;;;;4532028;28;20472;-63
2022/12/05 07:19:03;;;;;;;3.83;3.40;;;;;;;;;;4531498;28;20048;-63
2022/12/05 07:21:14;;;;;;;3.53;3.10;;;;;;;;;;4531663;28;20788;-63
2022/12/05 07:23:24;;;;;;;3.80;3.30;;;;;;;;;;4531528;28;20048;-63
2022/12/05 07:25:41;;;;;;;4.13;3.20;;;;;;;;;;4533063;28;20040;-63
2022/12/05 07:27:51;;;;;;;3.88;3.35;;;;;;;;;;4518929;28;20093;-63
2022/12/05 07:30:02;;;;;;;3.75;3.38;;;;;;;;;;4532564;28;20029;-63
2022/12/05 07:32:13;;;;;;;3.80;3.38;;;;;;;;;;4531866;28;20049;-63
2022/12/05 07:34:23;;;;;;;3.92;3.20;;;;;;;;;;4532454;28;20033;-63
2022/12/05 07:36:33;;;;;;;3.80;3.40;;;;;;;;;;4532170;28;20482;-64
2022/12/05 07:38:44;;;;;;;4.03;3.45;;;;;;;;;;4531767;28;20569;-63
2022/12/05 07:40:54;;;;;;;3.88;3.30;;;;;;;;;;4531834;28;20038;-63
2022/12/05 07:43:04;;;;;;;3.65;3.17;;;;;;;;;;4531291;28;20187;-63
2022/12/05 07:45:15;;;;;;;3.75;3.30;;;;;;;;;;4532895;28;20029;-63
2022/12/05 07:47:28;;;;;;;3.70;3.22;;;;;;;;;;4531294;28;20037;-63
2022/12/05 07:49:38;;;;;;;3.70;3.30;;;;;;;;;;4531653;28;20033;-63
2022/12/05 07:51:48;;;;;;;3.70;3.30;;;;;;;;;;4532247;28;20033;-63
2022/12/05 07:54:00;;;;;;;4.22;3.35;;;;;;;;;;4532381;28;20501;-64
2022/12/05 07:56:13;;;;;;;3.92;3.28;;;;;;;;;;4531521;28;20037;-63
2022/12/05 07:58:23;;;;;;;3.35;3.00;;;;;;;;;;4530735;28;20029;-64
2022/12/05 08:00:34;;;;;;;3.65;3.15;;;;;;;;;;4532769;28;20049;-64
2022/12/05 08:02:44;;;;;;;3.70;3.13;;;;;;;;;;4532373;28;20042;-64
2022/12/05 08:04:54;;;;;;;3.40;2.78;;;;;;;;;;4532515;28;20041;-63
2022/12/05 08:07:05;;;;;;;3.30;3.00;;;;;;;;;;4530899;28;20512;-63
2022/12/05 08:09:15;;;;;;;3.40;3.00;;;;;;;;;;4530392;28;20168;-64
2022/12/05 08:11:27;;;;;;;3.78;3.30;;;;;;;;;;4532252;28;20446;-64
2022/12/05 08:13:37;;;;;;;3.47;2.95;;;;;;;;;;4531087;28;20770;-63
2022/12/05 08:15:47;;;;;;;4.00;3.38;;;;;;;;;;4514082;28;20370;-63
2022/12/05 08:17:58;;;;;;;4.25;3.40;;;;;;;;;;4532375;28;20037;-63
2022/12/05 08:20:08;;;;;;;3.80;3.28;;;;;;;;;;4532440;28;20049;-63
2022/12/05 08:22:18;;;;;;;3.60;3.30;;;;;;;;;;4529400;28;20052;-63
2022/12/05 08:24:29;;;;;;;4.43;3.60;;;;;;;;;;4530788;28;20041;-63
2022/12/05 08:26:39;;;;;;;4.28;3.50;;;;;;;;;;4531084;28;20385;-64
2022/12/05 08:28:51;;;;;;;3.95;3.28;;;;;;;;;;4531076;28;20056;-64
2022/12/05 08:31:09;;;;;;;3.80;3.20;;;;;;;;;;4529145;28;20038;-64
2022/12/05 08:33:19;;;;;;;3.83;3.40;;;;;;;;;;4531882;28;20576;-64
2022/12/05 08:35:29;;;;;;;3.42;3.10;;;;;;;;;;4533050;28;20037;-64
2022/12/05 08:37:39;;;;;;;3.35;3.00;;;;;;;;;;4531725;28;20034;-64
2022/12/05 08:39:50;;;;;;;3.22;2.92;;;;;;;;;;4530871;28;20076;-65
2022/12/05 08:42:00;;;;;;;3.60;3.20;;;;;;;;;;4530907;28;20053;-64
2022/12/05 08:44:15;;;;;;;3.10;2.80;;;;;;;;;;4531433;28;20136;-65
2022/12/05 08:46:25;;;;;;;3.60;3.20;;;;;;;;;;4529695;28;20844;-64
2022/12/05 08:48:35;;;;;;;4.10;3.25;;;;;;;;;;4529585;28;20042;-64
2022/12/05 08:50:46;;;;;;;3.65;2.92;;;;;;;;;;4529380;28;20041;-64
2022/12/05 08:52:56;;;;;;;3.63;3.15;;;;;;;;;;4531821;28;20472;-64
2022/12/05 08:55:07;;;;;;;3.33;2.97;;;;;;;;;;4531307;28;20033;-64
2022/12/05 08:57:17;;;;;;;3.42;3.10;;;;;;;;;;4531603;28;20049;-64
2022/12/05 08:59:27;;;;;;;3.50;3.20;;;;;;;;;;4532374;28;20104;-65
2022/12/05 09:01:38;;;;;;;3.88;3.30;;;;;;;;;;4530876;28;20061;-65
2022/12/05 09:03:48;;;;;;;3.30;2.90;;;;;;;;;;4531777;28;20041;-64
2022/12/05 09:06:09;;;;;;;3.63;3.22;;;;;;;;;;4529494;28;20358;-64
2022/12/05 09:08:20;;;;;;;3.75;3.33;;;;;;;;;;4530384;28;20610;-64
2022/12/05 09:10:30;;;;;;;3.92;3.50;;;;;;;;;;4529633;28;20052;-64
2022/12/05 09:12:40;;;;;;;3.70;3.35;;;;;;;;;;4529199;28;20037;-64
2022/12/05 09:14:51;;;;;;;3.30;3.00;;;;;;;;;;4531893;28;20108;-64
2022/12/05 09:17:01;;;;;;;4.15;3.47;;;;;;;;;;4531869;28;20036;-65
2022/12/05 09:19:13;;;;;;;3.80;3.40;;;;;;;;;;4506026;28;20064;-64
2022/12/05 09:21:25;;;;;;;3.83;3.42;;;;;;;;;;4529962;28;20108;-64
2022/12/05 09:23:35;;;;;;;3.65;3.22;;;;;;;;;;4530910;28;20599;-64
2022/12/05 09:25:52;;;;;;;3.95;3.45;;;;;;;;;;4530832;28;20092;-64
2022/12/05 09:28:02;;;;;;;3.85;3.40;;;;;;;;;;4505976;28;20046;-64
2022/12/05 09:30:13;;;;;;;4.50;3.70;;;;;;;;;;4529294;28;20041;-64
2022/12/05 09:32:23;;;;;;;4.22;3.42;;;;;;;;;;4528561;28;20147;-64
2022/12/05 09:34:33;;;;;;;3.85;3.45;;;;;;;;;;4514040;28;20041;-64
2022/12/05 09:36:44;;;;;;;4.07;3.50;;;;;;;;;;4528842;28;20042;-64
2022/12/05 09:38:55;;;;;;;3.85;3.38;;;;;;;;;;4531207;28;20056;-65
2022/12/05 09:41:05;;;;;;;3.85;3.40;;;;;;;;;;4521108;28;20981;-65
2022/12/05 09:43:30;;;;;;;3.95;3.55;;;;;;;;;;4531455;28;20051;-65
2022/12/05 09:45:44;;;;;;;4.00;3.58;;;;;;;;;;4530357;28;20029;-64
2022/12/05 09:48:06;;;;;;;4.07;3.67;;;;;;;;;;4529911;28;20047;-64
2022/12/05 09:50:16;;;;;;;3.72;3.30;;;;;;;;;;4531542;28;20160;-64
2022/12/05 09:52:28;;;;;;;4.07;3.45;;;;;;;;;;4530790;28;20673;-65
2022/12/05 09:54:38;;;;;;;4.07;3.20;;;;;;;;;;4530451;28;20053;-65
2022/12/05 09:56:50;;;;;;;3.80;3.38;;;;;;;;;;4530557;28;20438;-64
2022/12/05 09:59:00;;;;;;;3.85;3.45;;;;;;;;;;4531888;28;20038;-65
2022/12/05 10:01:13;;;;;;;3.90;3.50;;;;;;;;;;4529653;28;20037;-65
2022/12/05 10:03:42;;;;;;;3.83;3.42;;;;;;;;;;4528773;28;20045;-64
2022/12/05 10:06:09;;;;;;;3.88;3.35;;;;;;;;;;4530347;28;20099;-64
2022/12/05 10:08:23;;;;;;;3.55;3.20;;;;;;;;;;4528938;28;20812;-65
2022/12/05 10:10:36;;;;;;;3.97;3.38;;;;;;;;;;4530807;28;20132;-64
2022/12/05 10:12:50;;;;;;;3.88;3.47;;;;;;;;;;4527850;28;20043;-64
2022/12/05 10:15:03;;;;;;;3.90;3.50;;;;;;;;;;4511772;28;20090;-65
2022/12/05 10:17:26;;;;;;;3.72;3.17;;;;;;;;;;4528924;28;20041;-64
2022/12/05 10:19:41;;;;;;;4.10;3.50;;;;;;;;;;4529662;28;20034;-65
2022/12/05 10:22:08;;;;;;;3.47;3.17;;;;;;;;;;4529962;28;20632;-64
2022/12/05 10:24:30;;;;;;;3.78;3.38;;;;;;;;;;4513569;28;20124;-64
2022/12/05 10:26:45;;;;;;;4.10;3.63;;;;;;;;;;4529974;28;20057;-64
2022/12/05 10:29:11;;;;;;;3.72;3.33;;;;;;;;;;4529924;28;20049;-65
2022/12/05 10:31:24;;;;;;;4.05;3.60;;;;;;;;;;4528200;28;20052;-65
2022/12/05 10:33:36;;;;;;;4.20;3.80;;;;;;;;;;4528791;28;20061;-65
2022/12/05 10:35:52;;;;;;;4.57;3.85;;;;;;;;;;4528605;28;20127;-65
2022/12/05 10:38:10;;;;;;;4.30;3.90;;;;;;;;;;4527897;28;20116;-64
2022/12/05 10:40:20;;;;;;;4.28;3.88;;;;;;;;;;4529225;28;20041;-65
2022/12/05 10:42:32;;;;;;;4.55;3.75;;;;;;;;;;4529191;28;20978;-64
2022/12/05 10:44:43;;;;;;;4.45;3.90;;;;;;;;;;4530127;28;20580;-64
2022/12/05 10:46:53;;;;;;;4.60;3.80;;;;;;;;;;4530495;28;20036;-65
2022/12/05 10:49:08;;;;;;;4.05;3.60;;;;;;;;;;4528794;28;20217;-64
2022/12/05 10:51:26;;;;;;;4.30;3.67;;;;;;;;;;4530473;28;20069;-64
2022/12/05 10:53:36;;;;;;;4.72;3.92;;;;;;;;;;4529308;28;20041;-64
2022/12/05 10:55:47;;;;;;;4.38;3.85;;;;;;;;;;4530111;28;20072;-64
2022/12/05 10:58:10;;;;;;;4.57;3.92;;;;;;;;;;4527087;28;20033;-64
2022/12/05 11:00:22;;;;;;;4.30;3.60;;;;;;;;;;4530202;28;20049;-64
2022/12/05 11:02:33;;;;;;;4.05;3.58;;;;;;;;;;4528475;28;20280;-65
2022/12/05 11:04:43;;;;;;;5.03;3.72;;;;;;;;;;4529231;28;20042;-64
2022/12/05 11:07:01;;;;;;;4.15;3.75;;;;;;;;;;4527964;28;20587;-64
2022/12/05 11:09:34;;;;;;;4.35;3.95;;;;;;;;;;4528866;28;20041;-64
2022/12/05 11:12:14;;;;;;;4.00;3.60;;;;;;;;;;4520425;28;20164;-64
2022/12/05 11:14:25;;;;;;;4.10;3.70;;;;;;;;;;4505648;28;20656;-64
2022/12/05 11:16:37;;;;;;;3.97;3.58;;;;;;;;;;4529339;28;20037;-64
2022/12/05 11:18:48;;;;;;;4.18;3.78;;;;;;;;;;4529487;28;20155;-64
2022/12/05 11:21:10;;;;;;;4.20;3.80;;;;;;;;;;4527715;28;20045;-64
2022/12/05 11:23:28;;;;;;;4.00;3.58;;;;;;;;;;4513962;28;20196;-64
2022/12/05 11:25:38;;;;;;;4.30;3.80;;;;;;;;;;4527870;28;20517;-64
2022/12/05 11:27:48;;;;;;;3.80;3.33;;;;;;;;;;4529032;28;20041;-64
2022/12/05 11:30:11;;;;;;;3.90;3.50;;;;;;;;;;4530128;28;20026;-64
2022/12/05 11:32:24;;;;;;;3.88;3.45;;;;;;;;;;4528501;28;20037;-64
2022/12/05 11:34:38;;;;;;;3.22;2.90;;;;;;;;;;4529053;28;21251;-64
2022/12/05 11:36:54;;;;;;;3.55;3.25;;;;;;;;;;4512774;28;20132;-64
2022/12/05 11:39:05;;;;;;;3.67;3.20;;;;;;;;;;4527638;28;20129;-64
2022/12/05 11:41:15;;;;;;;3.80;3.20;;;;;;;;;;4527450;28;20124;-64
2022/12/05 11:43:25;;;;;;;3.72;3.40;;;;;;;;;;4527975;28;20040;-63
2022/12/05 11:45:38;;;;;;;3.53;3.20;;;;;;;;;;4529714;28;20036;-63
2022/12/05 11:47:51;;;;;;;4.22;3.42;;;;;;;;;;4527191;28;20034;-64
2022/12/05 11:50:08;;;;;;;4.07;3.30;;;;;;;;;;4519376;28;20048;-64
2022/12/05 11:52:24;;;;;;;3.83;3.50;;;;;;;;;;4529310;28;20037;-64
2022/12/05 11:54:37;;;;;;;4.00;3.60;;;;;;;;;;4528914;28;20052;-63
2022/12/05 11:56:57;;;;;;;3.50;3.20;;;;;;;;;;4531132;28;20037;-63
2022/12/05 11:59:20;;;;;;;3.90;3.50;;;;;;;;;;4531405;28;20040;-64
2022/12/05 12:01:50;;;;;;;4.00;3.50;;;;;;;;;;4523664;28;20042;-64
2022/12/05 12:04:03;;;;;;;4.25;3.65;;;;;;;;;;4529838;28;20675;-64
2022/12/05 12:06:23;;;;;;;3.90;3.47;;;;;;;;;;4531141;28;20112;-64
2022/12/05 12:08:39;;;;;;;3.63;3.33;;;;;;;;;;4532697;28;20048;-64
2022/12/05 12:10:49;;;;;;;3.75;3.35;;;;;;;;;;4524076;28;20048;-65
2022/12/05 12:13:03;;;;;;;3.80;3.40;;;;;;;;;;4531792;28;20032;-64
2022/12/05 12:15:28;;;;;;;3.58;3.28;;;;;;;;;;4531759;28;20739;-63
2022/12/05 12:17:59;;;;;;;3.90;3.45;;;;;;;;;;4530706;28;20608;-64
2022/12/05 12:20:28;;;;;;;3.90;3.50;;;;;;;;;;4529850;28;20694;-64
2022/12/05 12:22:59;;;;;;;3.67;3.38;;;;;;;;;;4531499;28;20725;-64
2022/12/05 12:25:18;;;;;;;4.40;3.83;;;;;;;;;;4531144;28;20048;-64
2022/12/05 12:27:28;;;;;;;4.20;3.80;;;;;;;;;;4530058;28;20564;-64
2022/12/05 12:29:51;;;;;;;3.85;3.50;;;;;;;;;;4530650;28;20041;-64
2022/12/05 12:32:11;;;;;;;3.90;3.50;;;;;;;;;;4531790;28;20116;-64
2022/12/05 12:34:25;;;;;;;3.88;3.47;;;;;;;;;;4532084;28;20034;-64
2022/12/05 12:36:41;;;;;;;4.10;3.70;;;;;;;;;;4529481;28;20033;-64
2022/12/05 12:39:10;;;;;;;3.92;3.42;;;;;;;;;;4531790;28;20057;-64
2022/12/05 12:41:41;;;;;;;4.40;4.00;;;;;;;;;;4515320;28;20671;-63
2022/12/05 12:44:11;;;;;;;4.10;3.70;;;;;;;;;;4529994;28;20679;-64
2022/12/05 12:46:26;;;;;;;4.30;3.90;;;;;;;;;;4532345;28;20040;-63
2022/12/05 12:48:45;;;;;;;4.43;4.03;;;;;;;;;;4530188;28;20069;-64
2022/12/05 12:50:57;;;;;;;4.60;4.20;;;;;;;;;;4531593;28;20037;-65
2022/12/05 12:53:10;;;;;;;5.20;4.70;;;;;;;;;;4529278;28;20029;-63
2022/12/05 12:55:35;;;;;;;4.93;4.43;;;;;;;;;;4531317;28;20033;-64
2022/12/05 12:57:45;;;;;;;5.00;4.50;;;;;;;;;;4530152;28;20040;-64
2022/12/05 13:00:14;;;;;;;4.40;4.00;;;;;;;;;;4530561;28;20290;-63
2022/12/05 13:02:28;;;;;;;5.00;4.60;;;;;;;;;;4530411;28;20164;-63
2022/12/05 13:04:57;;;;;;;4.80;4.40;;;;;;;;;;4529662;28;20125;-64
2022/12/05 13:07:10;;;;;;;4.97;4.47;;;;;;;;;;4530336;28;20037;-63
2022/12/05 13:09:40;;;;;;;4.20;3.85;;;;;;;;;;4530482;28;21066;-63
2022/12/05 13:11:52;;;;;;;5.40;4.90;;;;;;;;;;4530771;28;20043;-63
2022/12/05 13:14:02;;;;;;;4.85;4.35;;;;;;;;;;4513432;28;20698;-63
2022/12/05 13:16:20;;;;;;;4.22;3.83;;;;;;;;;;4531373;28;20272;-64
2022/12/05 13:18:30;;;;;;;4.47;4.07;;;;;;;;;;4530261;28;20052;-64
2022/12/05 13:20:41;;;;;;;4.50;4.10;;;;;;;;;;4530149;28;20036;-63
2022/12/05 13:22:52;;;;;;;5.53;5.03;;;;;;;;;;4529365;28;20044;-63
2022/12/05 13:25:02;;;;;;;7.32;6.63;;;;;;;;;;4531262;28;20020;-63
2022/12/05 13:27:17;;;;;;;6.75;6.15;;;;;;;;;;4531715;28;20029;-62
2022/12/05 13:29:33;;;;;;;5.60;5.00;;;;;;;;;;4532143;28;20044;-63
2022/12/05 13:31:44;;;;;;;5.30;4.80;;;;;;;;;;4528487;28;20611;-64